sensor_id;sensor_type;location;lat;lon;timestamp;P1;durP1;ratioP1;P2;durP2;ratioP2
35743;SDS011;21867;52.012;4.324;2022-09-02T00:01:52;5.30;;;1.60;;
35743;SDS011;21867;52.012;4.324;2022-09-02T00:04:20;2.28;;;1.15;;
35743;SDS011;21867;52.012;4.324;2022-09-02T00:06:48;2.55;;;1.35;;
35743;SDS011;21867;52.012;4.324;2022-09-02T00:11:53;1.67;;;1.58;;
35743;SDS011;21867;52.012;4.324;2022-09-02T00:14:22;2.95;;;1.20;;
35743;SDS011;21867;52.012;4.324;2022-09-02T00:16:49;3.20;;;1.23;;
35743;SDS011;21867;52.012;4.324;2022-09-02T00:19:17;1.60;;;1.17;;
35743;SDS011;21867;52.012;4.324;2022-09-02T00:21:45;2.85;;;1.67;;
35743;SDS011;21867;52.012;4.324;2022-09-02T00:24:13;2.05;;;1.20;;
35743;SDS011;21867;52.012;4.324;2022-09-02T00:26:50;1.20;;;1.10;;
35743;SDS011;21867;52.012;4.324;2022-09-02T00:29:31;1.33;;;1.23;;
35743;SDS011;21867;52.012;4.324;2022-09-02T00:31:58;1.75;;;1.27;;
35743;SDS011;21867;52.012;4.324;2022-09-02T00:34:26;5.70;;;1.25;;
35743;SDS011;21867;52.012;4.324;2022-09-02T00:36:53;2.05;;;1.20;;
35743;SDS011;21867;52.012;4.324;2022-09-02T00:39:20;1.20;;;1.10;;
35743;SDS011;21867;52.012;4.324;2022-09-02T00:41:48;2.97;;;1.13;;
35743;SDS011;21867;52.012;4.324;2022-09-02T00:44:16;9.50;;;1.40;;
35743;SDS011;21867;52.012;4.324;2022-09-02T00:46:45;2.95;;;1.30;;
35743;SDS011;21867;52.012;4.324;2022-09-02T00:49:13;2.75;;;1.67;;
35743;SDS011;21867;52.012;4.324;2022-09-02T00:51:43;4.33;;;1.20;;
35743;SDS011;21867;52.012;4.324;2022-09-02T00:54:12;3.37;;;1.20;;
35743;SDS011;21867;52.012;4.324;2022-09-02T00:56:43;3.10;;;1.40;;
35743;SDS011;21867;52.012;4.324;2022-09-02T01:01:57;1.47;;;1.37;;
35743;SDS011;21867;52.012;4.324;2022-09-02T01:04:25;1.50;;;1.40;;
35743;SDS011;21867;52.012;4.324;2022-09-02T01:06:52;2.60;;;1.33;;
35743;SDS011;21867;52.012;4.324;2022-09-02T01:09:20;2.83;;;1.23;;
35743;SDS011;21867;52.012;4.324;2022-09-02T01:11:48;1.42;;;1.30;;
35743;SDS011;21867;52.012;4.324;2022-09-02T01:14:16;1.33;;;1.10;;
35743;SDS011;21867;52.012;4.324;2022-09-02T01:16:44;3.33;;;1.33;;
35743;SDS011;21867;52.012;4.324;2022-09-02T01:19:17;2.93;;;1.30;;
35743;SDS011;21867;52.012;4.324;2022-09-02T01:21:47;1.97;;;1.30;;
35743;SDS011;21867;52.012;4.324;2022-09-02T01:24:15;1.47;;;1.10;;
35743;SDS011;21867;52.012;4.324;2022-09-02T01:26:44;4.47;;;1.50;;
35743;SDS011;21867;52.012;4.324;2022-09-02T01:29:12;3.37;;;1.40;;
35743;SDS011;21867;52.012;4.324;2022-09-02T01:31:39;2.10;;;1.23;;
35743;SDS011;21867;52.012;4.324;2022-09-02T01:34:09;3.23;;;1.33;;
35743;SDS011;21867;52.012;4.324;2022-09-02T01:36:37;3.03;;;1.27;;
35743;SDS011;21867;52.012;4.324;2022-09-02T01:39:06;2.20;;;1.00;;
35743;SDS011;21867;52.012;4.324;2022-09-02T01:41:34;1.90;;;1.20;;
35743;SDS011;21867;52.012;4.324;2022-09-02T01:44:02;4.07;;;1.13;;
35743;SDS011;21867;52.012;4.324;2022-09-02T01:46:30;4.37;;;1.40;;
35743;SDS011;21867;52.012;4.324;2022-09-02T01:48:57;5.30;;;1.20;;
35743;SDS011;21867;52.012;4.324;2022-09-02T01:51:26;1.93;;;1.27;;
35743;SDS011;21867;52.012;4.324;2022-09-02T01:53:54;1.57;;;1.20;;
35743;SDS011;21867;52.012;4.324;2022-09-02T01:56:22;4.80;;;0.97;;
35743;SDS011;21867;52.012;4.324;2022-09-02T01:58:51;1.10;;;1.00;;
35743;SDS011;21867;52.012;4.324;2022-09-02T02:01:18;4.55;;;1.25;;
35743;SDS011;21867;52.012;4.324;2022-09-02T02:03:47;1.98;;;1.30;;
35743;SDS011;21867;52.012;4.324;2022-09-02T02:06:16;2.00;;;1.40;;
35743;SDS011;21867;52.012;4.324;2022-09-02T02:08:45;1.60;;;1.30;;
35743;SDS011;21867;52.012;4.324;2022-09-02T02:11:17;3.70;;;1.30;;
35743;SDS011;21867;52.012;4.324;2022-09-02T02:16:56;1.83;;;1.10;;
35743;SDS011;21867;52.012;4.324;2022-09-02T02:19:23;3.60;;;1.40;;
35743;SDS011;21867;52.012;4.324;2022-09-02T02:21:51;0.97;;;0.97;;
35743;SDS011;21867;52.012;4.324;2022-09-02T02:24:18;2.43;;;1.17;;
35743;SDS011;21867;52.012;4.324;2022-09-02T02:26:46;5.50;;;1.30;;
35743;SDS011;21867;52.012;4.324;2022-09-02T02:29:15;3.80;;;1.60;;
35743;SDS011;21867;52.012;4.324;2022-09-02T02:31:42;1.93;;;1.40;;
35743;SDS011;21867;52.012;4.324;2022-09-02T02:34:12;1.77;;;1.13;;
35743;SDS011;21867;52.012;4.324;2022-09-02T02:36:40;1.90;;;1.20;;
35743;SDS011;21867;52.012;4.324;2022-09-02T02:39:07;1.90;;;1.30;;
35743;SDS011;21867;52.012;4.324;2022-09-02T02:41:36;2.03;;;1.30;;
35743;SDS011;21867;52.012;4.324;2022-09-02T02:44:04;1.43;;;1.33;;
35743;SDS011;21867;52.012;4.324;2022-09-02T02:46:35;2.53;;;1.73;;
35743;SDS011;21867;52.012;4.324;2022-09-02T02:49:04;1.57;;;1.33;;
35743;SDS011;21867;52.012;4.324;2022-09-02T02:51:33;3.90;;;1.10;;
35743;SDS011;21867;52.012;4.324;2022-09-02T02:54:01;1.47;;;1.37;;
35743;SDS011;21867;52.012;4.324;2022-09-02T02:56:29;1.70;;;1.30;;
35743;SDS011;21867;52.012;4.324;2022-09-02T02:58:57;1.30;;;1.20;;
35743;SDS011;21867;52.012;4.324;2022-09-02T03:01:25;2.33;;;2.03;;
35743;SDS011;21867;52.012;4.324;2022-09-02T03:03:52;2.23;;;1.50;;
35743;SDS011;21867;52.012;4.324;2022-09-02T03:06:21;2.70;;;1.40;;
35743;SDS011;21867;52.012;4.324;2022-09-02T03:08:54;4.00;;;1.50;;
35743;SDS011;21867;52.012;4.324;2022-09-02T03:11:21;2.83;;;1.13;;
35743;SDS011;21867;52.012;4.324;2022-09-02T03:13:49;1.37;;;1.23;;
35743;SDS011;21867;52.012;4.324;2022-09-02T03:16:18;2.40;;;1.50;;
35743;SDS011;21867;52.012;4.324;2022-09-02T03:18:46;1.37;;;1.27;;
35743;SDS011;21867;52.012;4.324;2022-09-02T03:21:14;1.73;;;1.30;;
35743;SDS011;21867;52.012;4.324;2022-09-02T03:23:43;2.07;;;1.27;;
35743;SDS011;21867;52.012;4.324;2022-09-02T03:26:13;2.50;;;1.13;;
35743;SDS011;21867;52.012;4.324;2022-09-02T03:28:44;3.57;;;1.40;;
35743;SDS011;21867;52.012;4.324;2022-09-02T03:31:13;4.90;;;1.87;;
35743;SDS011;21867;52.012;4.324;2022-09-02T03:33:41;1.40;;;1.30;;
35743;SDS011;21867;52.012;4.324;2022-09-02T03:36:17;1.87;;;1.50;;
35743;SDS011;21867;52.012;4.324;2022-09-02T03:38:44;3.43;;;1.40;;
35743;SDS011;21867;52.012;4.324;2022-09-02T03:41:13;5.73;;;2.40;;
35743;SDS011;21867;52.012;4.324;2022-09-02T03:43:41;2.10;;;1.30;;
35743;SDS011;21867;52.012;4.324;2022-09-02T03:46:08;3.03;;;1.50;;
35743;SDS011;21867;52.012;4.324;2022-09-02T03:48:36;2.30;;;1.30;;
35743;SDS011;21867;52.012;4.324;2022-09-02T03:51:03;6.10;;;1.50;;
35743;SDS011;21867;52.012;4.324;2022-09-02T03:53:31;2.03;;;1.50;;
35743;SDS011;21867;52.012;4.324;2022-09-02T03:56:02;1.50;;;1.40;;
35743;SDS011;21867;52.012;4.324;2022-09-02T03:58:31;1.73;;;1.50;;
35743;SDS011;21867;52.012;4.324;2022-09-02T04:01:00;2.93;;;1.30;;
35743;SDS011;21867;52.012;4.324;2022-09-02T04:03:29;1.97;;;1.40;;
35743;SDS011;21867;52.012;4.324;2022-09-02T04:05:56;2.40;;;1.40;;
35743;SDS011;21867;52.012;4.324;2022-09-02T04:08:26;1.80;;;1.17;;
35743;SDS011;21867;52.012;4.324;2022-09-02T04:10:57;3.43;;;1.40;;
35743;SDS011;21867;52.012;4.324;2022-09-02T04:13:25;4.33;;;1.97;;
35743;SDS011;21867;52.012;4.324;2022-09-02T04:15:53;1.67;;;1.57;;
35743;SDS011;21867;52.012;4.324;2022-09-02T04:18:27;2.40;;;1.17;;
35743;SDS011;21867;52.012;4.324;2022-09-02T04:20:57;1.43;;;1.10;;
35743;SDS011;21867;52.012;4.324;2022-09-02T04:23:26;1.63;;;1.37;;
35743;SDS011;21867;52.012;4.324;2022-09-02T04:25:53;1.50;;;1.00;;
35743;SDS011;21867;52.012;4.324;2022-09-02T04:28:20;2.20;;;1.37;;
35743;SDS011;21867;52.012;4.324;2022-09-02T04:30:48;3.63;;;1.20;;
35743;SDS011;21867;52.012;4.324;2022-09-02T04:33:18;3.87;;;1.50;;
35743;SDS011;21867;52.012;4.324;2022-09-02T04:35:46;3.10;;;1.30;;
35743;SDS011;21867;52.012;4.324;2022-09-02T04:38:15;1.10;;;1.10;;
35743;SDS011;21867;52.012;4.324;2022-09-02T04:40:44;2.67;;;1.53;;
35743;SDS011;21867;52.012;4.324;2022-09-02T04:43:13;2.40;;;1.40;;
35743;SDS011;21867;52.012;4.324;2022-09-02T04:45:42;1.60;;;1.17;;
35743;SDS011;21867;52.012;4.324;2022-09-02T04:48:11;2.83;;;1.60;;
35743;SDS011;21867;52.012;4.324;2022-09-02T04:50:41;2.17;;;1.40;;
35743;SDS011;21867;52.012;4.324;2022-09-02T04:53:09;3.40;;;1.30;;
35743;SDS011;21867;52.012;4.324;2022-09-02T04:55:38;1.40;;;1.30;;
35743;SDS011;21867;52.012;4.324;2022-09-02T04:58:08;6.73;;;1.97;;
35743;SDS011;21867;52.012;4.324;2022-09-02T05:00:45;2.60;;;1.80;;
35743;SDS011;21867;52.012;4.324;2022-09-02T05:03:14;3.73;;;1.30;;
35743;SDS011;21867;52.012;4.324;2022-09-02T05:05:45;7.33;;;1.20;;
35743;SDS011;21867;52.012;4.324;2022-09-02T05:08:13;1.63;;;1.43;;
35743;SDS011;21867;52.012;4.324;2022-09-02T05:10:43;2.60;;;1.27;;
35743;SDS011;21867;52.012;4.324;2022-09-02T05:13:10;1.63;;;1.37;;
35743;SDS011;21867;52.012;4.324;2022-09-02T05:21:18;4.20;;;1.40;;
35743;SDS011;21867;52.012;4.324;2022-09-02T05:23:46;1.70;;;1.37;;
35743;SDS011;21867;52.012;4.324;2022-09-02T05:26:13;2.70;;;1.20;;
35743;SDS011;21867;52.012;4.324;2022-09-02T05:28:41;4.10;;;1.50;;
35743;SDS011;21867;52.012;4.324;2022-09-02T05:31:13;1.50;;;1.40;;
35743;SDS011;21867;52.012;4.324;2022-09-02T05:33:42;3.03;;;1.30;;
35743;SDS011;21867;52.012;4.324;2022-09-02T05:36:27;4.83;;;1.67;;
35743;SDS011;21867;52.012;4.324;2022-09-02T05:38:54;1.60;;;1.50;;
35743;SDS011;21867;52.012;4.324;2022-09-02T05:41:22;4.00;;;1.87;;
35743;SDS011;21867;52.012;4.324;2022-09-02T05:43:54;2.07;;;1.70;;
35743;SDS011;21867;52.012;4.324;2022-09-02T05:46:26;3.67;;;1.23;;
35743;SDS011;21867;52.012;4.324;2022-09-02T05:48:55;2.30;;;1.37;;
35743;SDS011;21867;52.012;4.324;2022-09-02T05:51:23;1.30;;;1.20;;
35743;SDS011;21867;52.012;4.324;2022-09-02T05:53:54;3.67;;;1.40;;
35743;SDS011;21867;52.012;4.324;2022-09-02T05:56:23;2.93;;;1.87;;
35743;SDS011;21867;52.012;4.324;2022-09-02T05:58:51;1.70;;;1.37;;
35743;SDS011;21867;52.012;4.324;2022-09-02T06:01:19;4.00;;;1.83;;
35743;SDS011;21867;52.012;4.324;2022-09-02T06:03:46;1.93;;;1.70;;
35743;SDS011;21867;52.012;4.324;2022-09-02T06:06:15;7.30;;;2.20;;
35743;SDS011;21867;52.012;4.324;2022-09-02T06:08:43;4.70;;;1.80;;
35743;SDS011;21867;52.012;4.324;2022-09-02T06:11:12;2.60;;;1.33;;
35743;SDS011;21867;52.012;4.324;2022-09-02T06:13:40;2.50;;;1.80;;
35743;SDS011;21867;52.012;4.324;2022-09-02T06:16:11;5.97;;;1.60;;
35743;SDS011;21867;52.012;4.324;2022-09-02T06:18:41;1.70;;;1.33;;
35743;SDS011;21867;52.012;4.324;2022-09-02T06:21:10;9.57;;;1.90;;
35743;SDS011;21867;52.012;4.324;2022-09-02T06:23:41;7.37;;;1.87;;
35743;SDS011;21867;52.012;4.324;2022-09-02T06:26:10;3.33;;;1.70;;
35743;SDS011;21867;52.012;4.324;2022-09-02T06:28:39;3.53;;;1.53;;
35743;SDS011;21867;52.012;4.324;2022-09-02T06:31:08;3.70;;;1.43;;
35743;SDS011;21867;52.012;4.324;2022-09-02T06:33:36;3.53;;;1.80;;
35743;SDS011;21867;52.012;4.324;2022-09-02T06:36:04;4.67;;;1.90;;
35743;SDS011;21867;52.012;4.324;2022-09-02T06:38:34;3.97;;;1.50;;
35743;SDS011;21867;52.012;4.324;2022-09-02T06:41:02;4.30;;;1.70;;
35743;SDS011;21867;52.012;4.324;2022-09-02T06:43:37;3.77;;;1.70;;
35743;SDS011;21867;52.012;4.324;2022-09-02T06:46:20;6.80;;;2.30;;
35743;SDS011;21867;52.012;4.324;2022-09-02T06:48:50;18.33;;;2.50;;
35743;SDS011;21867;52.012;4.324;2022-09-02T06:51:22;3.20;;;1.63;;
35743;SDS011;21867;52.012;4.324;2022-09-02T06:53:51;6.00;;;2.17;;
35743;SDS011;21867;52.012;4.324;2022-09-02T06:56:21;2.13;;;1.27;;
35743;SDS011;21867;52.012;4.324;2022-09-02T06:58:49;8.57;;;1.90;;
35743;SDS011;21867;52.012;4.324;2022-09-02T07:01:17;8.03;;;2.20;;
35743;SDS011;21867;52.012;4.324;2022-09-02T07:03:47;6.67;;;1.87;;
35743;SDS011;21867;52.012;4.324;2022-09-02T07:06:16;5.13;;;1.70;;
35743;SDS011;21867;52.012;4.324;2022-09-02T07:08:46;3.63;;;1.70;;
35743;SDS011;21867;52.012;4.324;2022-09-02T07:11:14;2.77;;;1.90;;
35743;SDS011;21867;52.012;4.324;2022-09-02T07:13:42;1.67;;;1.43;;
35743;SDS011;21867;52.012;4.324;2022-09-02T07:16:10;4.33;;;1.80;;
35743;SDS011;21867;52.012;4.324;2022-09-02T07:18:44;3.57;;;1.70;;
35743;SDS011;21867;52.012;4.324;2022-09-02T07:21:14;3.70;;;1.63;;
35743;SDS011;21867;52.012;4.324;2022-09-02T07:23:41;3.57;;;1.83;;
35743;SDS011;21867;52.012;4.324;2022-09-02T07:26:10;1.73;;;1.40;;
35743;SDS011;21867;52.012;4.324;2022-09-02T07:28:39;2.30;;;1.77;;
35743;SDS011;21867;52.012;4.324;2022-09-02T07:31:07;4.23;;;2.03;;
35743;SDS011;21867;52.012;4.324;2022-09-02T07:33:35;6.97;;;1.73;;
35743;SDS011;21867;52.012;4.324;2022-09-02T07:36:04;7.83;;;2.50;;
35743;SDS011;21867;52.012;4.324;2022-09-02T07:38:40;2.40;;;1.90;;
35743;SDS011;21867;52.012;4.324;2022-09-02T07:41:08;3.47;;;2.10;;
35743;SDS011;21867;52.012;4.324;2022-09-02T07:43:37;3.00;;;1.87;;
35743;SDS011;21867;52.012;4.324;2022-09-02T07:46:05;4.77;;;2.30;;
35743;SDS011;21867;52.012;4.324;2022-09-02T07:48:33;2.80;;;1.80;;
35743;SDS011;21867;52.012;4.324;2022-09-02T07:51:01;2.80;;;1.87;;
35743;SDS011;21867;52.012;4.324;2022-09-02T07:53:30;4.47;;;1.83;;
35743;SDS011;21867;52.012;4.324;2022-09-02T07:55:59;2.60;;;2.17;;
35743;SDS011;21867;52.012;4.324;2022-09-02T07:58:28;2.87;;;2.03;;
35743;SDS011;21867;52.012;4.324;2022-09-02T08:00:59;3.57;;;1.07;;
35743;SDS011;21867;52.012;4.324;2022-09-02T08:03:27;6.10;;;2.30;;
35743;SDS011;21867;52.012;4.324;2022-09-02T08:05:56;4.10;;;1.73;;
35743;SDS011;21867;52.012;4.324;2022-09-02T08:08:24;3.10;;;1.53;;
35743;SDS011;21867;52.012;4.324;2022-09-02T08:10:57;2.67;;;1.77;;
35743;SDS011;21867;52.012;4.324;2022-09-02T08:13:44;3.90;;;2.73;;
35743;SDS011;21867;52.012;4.324;2022-09-02T08:16:24;4.67;;;2.03;;
35743;SDS011;21867;52.012;4.324;2022-09-02T08:18:51;9.27;;;2.87;;
35743;SDS011;21867;52.012;4.324;2022-09-02T08:21:19;4.63;;;1.90;;
35743;SDS011;21867;52.012;4.324;2022-09-02T08:23:46;6.30;;;2.40;;
35743;SDS011;21867;52.012;4.324;2022-09-02T08:26:13;2.03;;;1.77;;
35743;SDS011;21867;52.012;4.324;2022-09-02T08:28:41;5.07;;;2.37;;
35743;SDS011;21867;52.012;4.324;2022-09-02T08:31:09;7.13;;;2.37;;
35743;SDS011;21867;52.012;4.324;2022-09-02T08:33:37;3.33;;;2.03;;
35743;SDS011;21867;52.012;4.324;2022-09-02T08:36:04;4.50;;;2.33;;
35743;SDS011;21867;52.012;4.324;2022-09-02T08:38:32;4.37;;;2.00;;
35743;SDS011;21867;52.012;4.324;2022-09-02T08:41:00;8.20;;;1.83;;
35743;SDS011;21867;52.012;4.324;2022-09-02T08:57:26;4.93;;;1.70;;
35743;SDS011;21867;52.012;4.324;2022-09-02T08:59:54;2.10;;;1.63;;
35743;SDS011;21867;52.012;4.324;2022-09-02T09:02:24;3.83;;;2.10;;
35743;SDS011;21867;52.012;4.324;2022-09-02T09:07:37;5.37;;;2.83;;
35743;SDS011;21867;52.012;4.324;2022-09-02T09:10:11;4.27;;;3.03;;
35743;SDS011;21867;52.012;4.324;2022-09-02T09:12:47;2.50;;;1.70;;
35743;SDS011;21867;52.012;4.324;2022-09-02T09:15:18;4.63;;;2.33;;
35743;SDS011;21867;52.012;4.324;2022-09-02T09:17:47;5.87;;;2.40;;
35743;SDS011;21867;52.012;4.324;2022-09-02T09:20:18;5.90;;;2.53;;
35743;SDS011;21867;52.012;4.324;2022-09-02T09:22:46;3.92;;;2.22;;
35743;SDS011;21867;52.012;4.324;2022-09-02T09:25:15;6.60;;;3.05;;
35743;SDS011;21867;52.012;4.324;2022-09-02T09:27:43;6.63;;;3.07;;
35743;SDS011;21867;52.012;4.324;2022-09-02T09:30:12;3.60;;;2.93;;
35743;SDS011;21867;52.012;4.324;2022-09-02T09:32:42;1.97;;;1.80;;
35743;SDS011;21867;52.012;4.324;2022-09-02T09:35:10;4.53;;;2.77;;
35743;SDS011;21867;52.012;4.324;2022-09-02T09:37:38;5.50;;;2.90;;
35743;SDS011;21867;52.012;4.324;2022-09-02T09:40:22;3.63;;;2.28;;
35743;SDS011;21867;52.012;4.324;2022-09-02T09:42:52;8.48;;;2.70;;
35743;SDS011;21867;52.012;4.324;2022-09-02T09:45:24;5.63;;;3.17;;
35743;SDS011;21867;52.012;4.324;2022-09-02T09:51:22;6.93;;;3.10;;
35743;SDS011;21867;52.012;4.324;2022-09-02T09:53:50;7.22;;;3.22;;
35743;SDS011;21867;52.012;4.324;2022-09-02T09:56:24;2.72;;;2.10;;
35743;SDS011;21867;52.012;4.324;2022-09-02T09:58:52;4.93;;;2.60;;
35743;SDS011;21867;52.012;4.324;2022-09-02T10:01:21;5.10;;;2.83;;
35743;SDS011;21867;52.012;4.324;2022-09-02T10:03:51;4.85;;;2.33;;
35743;SDS011;21867;52.012;4.324;2022-09-02T10:06:20;5.18;;;2.90;;
35743;SDS011;21867;52.012;4.324;2022-09-02T10:08:49;6.28;;;2.83;;
35743;SDS011;21867;52.012;4.324;2022-09-02T10:11:19;3.67;;;2.60;;
35743;SDS011;21867;52.012;4.324;2022-09-02T10:13:46;4.88;;;3.38;;
35743;SDS011;21867;52.012;4.324;2022-09-02T10:19:08;3.50;;;2.50;;
35743;SDS011;21867;52.012;4.324;2022-09-02T10:21:43;3.72;;;2.53;;
35743;SDS011;21867;52.012;4.324;2022-09-02T10:24:16;5.65;;;2.97;;
35743;SDS011;21867;52.012;4.324;2022-09-02T10:26:47;5.15;;;2.25;;
35743;SDS011;21867;52.012;4.324;2022-09-02T10:29:28;5.82;;;3.35;;
35743;SDS011;21867;52.012;4.324;2022-09-02T10:32:11;3.25;;;2.72;;
35743;SDS011;21867;52.012;4.324;2022-09-02T10:34:45;4.05;;;2.25;;
35743;SDS011;21867;52.012;4.324;2022-09-02T10:37:17;3.30;;;2.60;;
35743;SDS011;21867;52.012;4.324;2022-09-02T10:39:55;4.05;;;3.33;;
35743;SDS011;21867;52.012;4.324;2022-09-02T10:42:27;5.03;;;3.35;;
35743;SDS011;21867;52.012;4.324;2022-09-02T10:45:01;4.32;;;2.10;;
35743;SDS011;21867;52.012;4.324;2022-09-02T10:50:32;3.58;;;2.33;;
35743;SDS011;21867;52.012;4.324;2022-09-02T10:53:09;4.57;;;2.88;;
35743;SDS011;21867;52.012;4.324;2022-09-02T10:55:41;5.07;;;3.28;;
35743;SDS011;21867;52.012;4.324;2022-09-02T10:58:11;3.20;;;2.17;;
35743;SDS011;21867;52.012;4.324;2022-09-02T11:00:40;3.45;;;2.85;;
35743;SDS011;21867;52.012;4.324;2022-09-02T11:29:10;2.95;;;1.95;;
35743;SDS011;21867;52.012;4.324;2022-09-02T11:31:40;3.58;;;2.03;;
35743;SDS011;21867;52.012;4.324;2022-09-02T11:34:10;2.97;;;2.00;;
35743;SDS011;21867;52.012;4.324;2022-09-02T11:36:41;6.70;;;2.92;;
35743;SDS011;21867;52.012;4.324;2022-09-02T11:39:09;3.47;;;2.45;;
35743;SDS011;21867;52.012;4.324;2022-09-02T11:41:44;2.38;;;2.10;;
35743;SDS011;21867;52.012;4.324;2022-09-02T11:44:21;4.50;;;2.53;;
35743;SDS011;21867;52.012;4.324;2022-09-02T11:47:03;4.10;;;2.08;;
35743;SDS011;21867;52.012;4.324;2022-09-02T11:49:36;3.22;;;2.35;;
35743;SDS011;21867;52.012;4.324;2022-09-02T11:52:16;4.72;;;2.55;;
35743;SDS011;21867;52.012;4.324;2022-09-02T11:54:48;2.67;;;1.80;;
35743;SDS011;21867;52.012;4.324;2022-09-02T11:57:20;3.17;;;1.92;;
35743;SDS011;21867;52.012;4.324;2022-09-02T12:00:03;6.07;;;2.92;;
35743;SDS011;21867;52.012;4.324;2022-09-02T12:02:38;3.22;;;2.53;;
35743;SDS011;21867;52.012;4.324;2022-09-02T12:07:52;3.58;;;2.58;;
35743;SDS011;21867;52.012;4.324;2022-09-02T12:13:06;2.78;;;2.30;;
35743;SDS011;21867;52.012;4.324;2022-09-02T12:15:36;7.05;;;2.10;;
35743;SDS011;21867;52.012;4.324;2022-09-02T12:18:11;9.20;;;3.13;;
35743;SDS011;21867;52.012;4.324;2022-09-02T12:29:50;7.50;;;2.53;;
35743;SDS011;21867;52.012;4.324;2022-09-02T12:35:09;3.65;;;2.22;;
35743;SDS011;21867;52.012;4.324;2022-09-02T12:37:53;3.42;;;1.95;;
35743;SDS011;21867;52.012;4.324;2022-09-02T12:40:25;3.22;;;1.98;;
35743;SDS011;21867;52.012;4.324;2022-09-02T12:42:58;3.13;;;1.98;;
35743;SDS011;21867;52.012;4.324;2022-09-02T12:45:26;5.60;;;2.42;;
35743;SDS011;21867;52.012;4.324;2022-09-02T12:47:57;2.65;;;2.42;;
35743;SDS011;21867;52.012;4.324;2022-09-02T12:50:27;5.43;;;2.22;;
35743;SDS011;21867;52.012;4.324;2022-09-02T12:53:10;2.67;;;1.80;;
35743;SDS011;21867;52.012;4.324;2022-09-02T12:55:53;3.85;;;2.17;;
35743;SDS011;21867;52.012;4.324;2022-09-02T12:58:21;7.57;;;2.33;;
35743;SDS011;21867;52.012;4.324;2022-09-02T13:00:56;6.70;;;3.13;;
35743;SDS011;21867;52.012;4.324;2022-09-02T13:03:32;4.35;;;1.58;;
35743;SDS011;21867;52.012;4.324;2022-09-02T13:06:06;4.55;;;2.65;;
35743;SDS011;21867;52.012;4.324;2022-09-02T13:08:45;3.13;;;2.17;;
35743;SDS011;21867;52.012;4.324;2022-09-02T13:14:32;3.65;;;1.80;;
35743;SDS011;21867;52.012;4.324;2022-09-02T13:17:18;6.53;;;1.85;;
35743;SDS011;21867;52.012;4.324;2022-09-02T13:20:10;2.15;;;1.50;;
35743;SDS011;21867;52.012;4.324;2022-09-02T13:22:53;2.67;;;2.33;;
35743;SDS011;21867;52.012;4.324;2022-09-02T13:25:27;1.83;;;1.70;;
35743;SDS011;21867;52.012;4.324;2022-09-02T13:28:12;3.70;;;1.60;;
35743;SDS011;21867;52.012;4.324;2022-09-02T13:33:32;3.15;;;1.55;;
35743;SDS011;21867;52.012;4.324;2022-09-02T13:35:59;4.35;;;1.98;;
35743;SDS011;21867;52.012;4.324;2022-09-02T13:38:28;4.32;;;1.67;;
35743;SDS011;21867;52.012;4.324;2022-09-02T13:40:56;5.63;;;2.10;;
35743;SDS011;21867;52.012;4.324;2022-09-02T13:43:24;2.28;;;1.88;;
35743;SDS011;21867;52.012;4.324;2022-09-02T13:45:52;2.40;;;2.15;;
35743;SDS011;21867;52.012;4.324;2022-09-02T13:48:20;3.20;;;1.83;;
35743;SDS011;21867;52.012;4.324;2022-09-02T13:50:49;4.60;;;2.38;;
35743;SDS011;21867;52.012;4.324;2022-09-02T13:53:20;6.25;;;2.60;;
35743;SDS011;21867;52.012;4.324;2022-09-02T13:56:10;12.07;;;1.60;;
35743;SDS011;21867;52.012;4.324;2022-09-02T13:58:40;4.93;;;2.03;;
35743;SDS011;21867;52.012;4.324;2022-09-02T14:01:21;4.38;;;2.28;;
35743;SDS011;21867;52.012;4.324;2022-09-02T14:03:49;2.33;;;2.13;;
35743;SDS011;21867;52.012;4.324;2022-09-02T14:06:18;3.13;;;2.17;;
35743;SDS011;21867;52.012;4.324;2022-09-02T14:08:49;3.42;;;2.10;;
35743;SDS011;21867;52.012;4.324;2022-09-02T14:11:18;6.32;;;1.95;;
35743;SDS011;21867;52.012;4.324;2022-09-02T14:13:47;6.05;;;2.40;;
35743;SDS011;21867;52.012;4.324;2022-09-02T14:16:25;2.80;;;2.03;;
35743;SDS011;21867;52.012;4.324;2022-09-02T14:19:06;5.15;;;2.40;;
35743;SDS011;21867;52.012;4.324;2022-09-02T14:21:33;4.15;;;2.42;;
35743;SDS011;21867;52.012;4.324;2022-09-02T14:24:01;4.57;;;2.50;;
35743;SDS011;21867;52.012;4.324;2022-09-02T14:26:31;2.22;;;2.03;;
35743;SDS011;21867;52.012;4.324;2022-09-02T14:28:59;3.58;;;2.60;;
35743;SDS011;21867;52.012;4.324;2022-09-02T14:31:27;5.57;;;2.38;;
35743;SDS011;21867;52.012;4.324;2022-09-02T14:33:55;4.07;;;2.20;;
35743;SDS011;21867;52.012;4.324;2022-09-02T14:36:30;2.22;;;1.90;;
35743;SDS011;21867;52.012;4.324;2022-09-02T14:39:08;3.03;;;1.38;;
35743;SDS011;21867;52.012;4.324;2022-09-02T14:41:40;3.42;;;1.67;;
35743;SDS011;21867;52.012;4.324;2022-09-02T14:44:09;2.10;;;1.90;;
35743;SDS011;21867;52.012;4.324;2022-09-02T14:46:41;4.72;;;1.90;;
35743;SDS011;21867;52.012;4.324;2022-09-02T14:49:16;2.10;;;1.60;;
35743;SDS011;21867;52.012;4.324;2022-09-02T14:51:46;2.47;;;2.22;;
35743;SDS011;21867;52.012;4.324;2022-09-02T14:57:03;2.72;;;1.95;;
35743;SDS011;21867;52.012;4.324;2022-09-02T14:59:31;6.30;;;1.75;;
35743;SDS011;21867;52.012;4.324;2022-09-02T15:01:58;3.63;;;2.30;;
35743;SDS011;21867;52.012;4.324;2022-09-02T15:04:26;2.05;;;1.42;;
35743;SDS011;21867;52.012;4.324;2022-09-02T15:06:53;2.50;;;1.77;;
35743;SDS011;21867;52.012;4.324;2022-09-02T15:09:20;2.47;;;1.52;;
35743;SDS011;21867;52.012;4.324;2022-09-02T15:11:48;2.45;;;2.25;;
35743;SDS011;21867;52.012;4.324;2022-09-02T15:14:18;4.20;;;2.03;;
35743;SDS011;21867;52.012;4.324;2022-09-02T15:16:45;1.60;;;1.50;;
35743;SDS011;21867;52.012;4.324;2022-09-02T15:19:13;3.63;;;1.85;;
35743;SDS011;21867;52.012;4.324;2022-09-02T15:21:40;1.52;;;1.42;;
35743;SDS011;21867;52.012;4.324;2022-09-02T15:24:07;3.30;;;1.33;;
35743;SDS011;21867;52.012;4.324;2022-09-02T15:26:36;3.15;;;1.75;;
35743;SDS011;21867;52.012;4.324;2022-09-02T15:29:03;5.22;;;1.52;;
35743;SDS011;21867;52.012;4.324;2022-09-02T15:31:32;6.30;;;1.85;;
35743;SDS011;21867;52.012;4.324;2022-09-02T15:33:59;2.35;;;1.60;;
35743;SDS011;21867;52.012;4.324;2022-09-02T15:36:26;4.88;;;1.65;;
35743;SDS011;21867;52.012;4.324;2022-09-02T15:38:54;2.17;;;1.65;;
35743;SDS011;21867;52.012;4.324;2022-09-02T15:41:22;3.00;;;1.65;;
35743;SDS011;21867;52.012;4.324;2022-09-02T15:43:52;2.10;;;1.63;;
35743;SDS011;21867;52.012;4.324;2022-09-02T15:46:21;2.92;;;2.20;;
35743;SDS011;21867;52.012;4.324;2022-09-02T15:48:50;3.25;;;1.63;;
35743;SDS011;21867;52.012;4.324;2022-09-02T15:51:18;4.35;;;1.90;;
35743;SDS011;21867;52.012;4.324;2022-09-02T15:53:46;1.35;;;1.25;;
35743;SDS011;21867;52.012;4.324;2022-09-02T15:56:20;10.65;;;2.38;;
35743;SDS011;21867;52.012;4.324;2022-09-02T15:58:52;3.75;;;2.10;;
35743;SDS011;21867;52.012;4.324;2022-09-02T16:01:30;4.45;;;2.17;;
35743;SDS011;21867;52.012;4.324;2022-09-02T16:04:00;2.67;;;2.00;;
35743;SDS011;21867;52.012;4.324;2022-09-02T16:06:27;10.18;;;2.40;;
35743;SDS011;21867;52.012;4.324;2022-09-02T16:08:55;4.38;;;1.90;;
35743;SDS011;21867;52.012;4.324;2022-09-02T16:11:22;3.78;;;2.58;;
35743;SDS011;21867;52.012;4.324;2022-09-02T16:13:50;2.65;;;1.52;;
35743;SDS011;21867;52.012;4.324;2022-09-02T16:16:17;3.13;;;1.60;;
35743;SDS011;21867;52.012;4.324;2022-09-02T16:18:47;4.25;;;1.63;;
35743;SDS011;21867;52.012;4.324;2022-09-02T16:21:16;3.28;;;1.73;;
35743;SDS011;21867;52.012;4.324;2022-09-02T16:23:44;6.38;;;1.48;;
35743;SDS011;21867;52.012;4.324;2022-09-02T16:26:12;3.55;;;1.77;;
35743;SDS011;21867;52.012;4.324;2022-09-02T16:28:40;1.92;;;1.63;;
35743;SDS011;21867;52.012;4.324;2022-09-02T16:31:08;2.30;;;1.70;;
35743;SDS011;21867;52.012;4.324;2022-09-02T16:33:36;3.00;;;1.52;;
35743;SDS011;21867;52.012;4.324;2022-09-02T16:36:04;3.60;;;1.95;;
35743;SDS011;21867;52.012;4.324;2022-09-02T16:38:32;4.60;;;1.90;;